createdAt,value
2022-08-12T00:02:26.435Z,18.77
2022-08-12T00:05:11.853Z,18.92
2022-08-12T00:07:59.566Z,18.57
2022-08-12T00:10:45.945Z,18.77
2022-08-12T00:13:32.111Z,18.17
2022-08-12T00:16:18.293Z,18.21
2022-08-12T00:19:04.026Z,18.24
2022-08-12T00:21:49.933Z,18.40
2022-08-12T00:24:40.906Z,18.58
2022-08-12T00:27:27.565Z,18.58
2022-08-12T00:30:32.027Z,18.52
2022-08-12T00:33:18.143Z,18.57
2022-08-12T00:36:14.877Z,18.69
2022-08-12T00:39:20.674Z,18.29
2022-08-12T00:42:08.942Z,18.51
2022-08-12T00:44:36.533Z,18.60
2022-08-12T00:47:05.515Z,18.77
2022-08-12T00:49:33.195Z,18.43
2022-08-12T00:52:11.124Z,18.55
2022-08-12T00:54:59.277Z,18.42
2022-08-12T00:57:37.673Z,18.58
2022-08-12T01:00:26.697Z,18.52
2022-08-12T01:02:58.558Z,18.03
2022-08-12T01:05:51.000Z,17.55
2022-08-12T01:08:50.392Z,17.62
2022-08-12T01:11:33.497Z,17.65
2022-08-12T01:14:03.487Z,17.15
2022-08-12T01:16:37.244Z,17.32
2022-08-12T01:19:04.707Z,17.15
2022-08-12T01:22:00.299Z,17.02
2022-08-12T01:25:19.298Z,17.19
2022-08-12T01:27:50.072Z,16.52
2022-08-12T01:30:17.773Z,16.71
2022-08-12T01:32:48.657Z,16.99
2022-08-12T01:35:17.673Z,17.18
2022-08-12T01:38:00.874Z,16.90
2022-08-12T01:40:38.221Z,16.51
2022-08-12T01:43:13.455Z,16.63
2022-08-12T01:46:20.113Z,17.28
2022-08-12T01:49:40.401Z,16.63
2022-08-12T01:52:22.082Z,16.33
2022-08-12T01:54:52.342Z,15.74
2022-08-12T01:57:57.741Z,16.23
2022-08-12T02:00:54.789Z,16.61
2022-08-12T02:04:27.161Z,16.23
2022-08-12T02:07:59.360Z,15.74
2022-08-12T02:11:04.000Z,16.65
2022-08-12T02:13:50.068Z,16.38
2022-08-12T02:16:42.112Z,16.02
2022-08-12T02:20:01.750Z,16.17
2022-08-12T02:22:41.497Z,16.80
2022-08-12T02:25:18.894Z,16.41
2022-08-12T02:27:52.471Z,17.03
2022-08-12T02:30:26.783Z,17.24
2022-08-12T02:33:09.431Z,17.08
2022-08-12T02:35:39.403Z,17.06
2022-08-12T02:38:10.869Z,17.17
2022-08-12T02:40:45.443Z,16.97
2022-08-12T02:43:46.729Z,16.90
2022-08-12T02:46:25.993Z,16.93
2022-08-12T02:49:03.703Z,17.34
2022-08-12T02:51:39.091Z,16.96
2022-08-12T02:54:07.484Z,17.14
2022-08-12T02:56:41.746Z,17.31
2022-08-12T02:59:16.987Z,16.88
2022-08-12T03:01:53.598Z,16.30
2022-08-12T03:04:43.819Z,15.50
2022-08-12T03:07:31.005Z,15.82
2022-08-12T03:10:23.071Z,15.15
2022-08-12T03:13:07.410Z,15.54
2022-08-12T03:15:36.032Z,15.08
2022-08-12T03:18:26.914Z,14.89
2022-08-12T03:20:59.200Z,15.01
2022-08-12T03:23:31.104Z,14.95
2022-08-12T03:26:02.464Z,14.78
2022-08-12T03:28:52.115Z,14.58
2022-08-12T03:31:28.383Z,14.36
2022-08-12T03:34:12.559Z,14.55
2022-08-12T03:36:42.359Z,14.57
2022-08-12T03:39:17.871Z,14.77
2022-08-12T03:42:06.824Z,14.72
2022-08-12T03:45:52.321Z,14.41
2022-08-12T03:48:39.210Z,14.50
2022-08-12T03:51:25.674Z,14.61
2022-08-12T03:54:14.215Z,14.42
2022-08-12T03:57:00.034Z,14.34
2022-08-12T03:59:45.512Z,14.22
2022-08-12T04:02:16.115Z,14.10
2022-08-12T04:04:45.614Z,14.14
2022-08-12T04:07:14.655Z,14.33
2022-08-12T04:09:46.323Z,14.47
2022-08-12T04:12:33.502Z,14.40
2022-08-12T04:15:02.288Z,14.52
2022-08-12T04:17:30.306Z,14.52
2022-08-12T04:19:59.196Z,14.52
2022-08-12T04:22:29.705Z,14.52
2022-08-12T04:25:01.351Z,14.84
2022-08-12T04:27:31.620Z,15.47
2022-08-12T04:30:30.946Z,15.24
2022-08-12T04:32:53.789Z,15.89
2022-08-12T04:35:21.475Z,16.18
2022-08-12T04:37:58.506Z,16.37
2022-08-12T04:40:31.972Z,16.57
2022-08-12T04:43:03.486Z,16.44
2022-08-12T04:45:34.776Z,16.09
2022-08-12T04:48:06.662Z,16.26
2022-08-12T04:50:38.208Z,16.60
2022-08-12T04:53:09.203Z,16.68
2022-08-12T04:55:40.080Z,16.56
2022-08-12T04:58:12.152Z,16.87
2022-08-12T05:00:41.022Z,17.30
2022-08-12T05:03:17.340Z,17.58
2022-08-12T05:05:53.562Z,17.79
2022-08-12T05:08:22.442Z,18.14
2022-08-12T05:10:50.291Z,18.14
2022-08-12T05:13:22.497Z,18.53
2022-08-12T05:16:04.803Z,18.66
2022-08-12T05:18:39.734Z,18.74
2022-08-12T05:21:11.165Z,18.73
2022-08-12T05:23:42.727Z,19.08
2022-08-12T05:26:10.792Z,19.33
2022-08-12T05:28:38.254Z,19.60
2022-08-12T05:31:08.083Z,20.20
2022-08-12T05:33:40.034Z,20.32
2022-08-12T05:36:15.673Z,20.67
2022-08-12T05:38:57.191Z,20.86
2022-08-12T05:41:32.066Z,20.90
2022-08-12T05:44:17.845Z,20.90
2022-08-12T05:46:46.509Z,21.24
2022-08-12T05:49:13.694Z,21.76
2022-08-12T05:51:48.137Z,21.71
2022-08-12T05:54:16.495Z,22.07
2022-08-12T05:56:43.504Z,22.53
2022-08-12T05:59:12.499Z,22.09
2022-08-12T06:02:08.852Z,21.51
2022-08-12T06:04:29.453Z,22.10
2022-08-12T06:06:56.579Z,21.93
2022-08-12T06:09:28.631Z,22.61
2022-08-12T06:12:04.676Z,22.59
2022-08-12T06:14:39.377Z,22.58
2022-08-12T06:17:08.907Z,22.25
2022-08-12T06:20:27.734Z,23.04
2022-08-12T06:22:35.646Z,23.25
2022-08-12T06:25:02.999Z,23.06
2022-08-12T06:27:29.993Z,22.91
2022-08-12T06:30:07.318Z,23.01
2022-08-12T06:32:42.723Z,23.19
2022-08-12T06:35:26.769Z,23.23
2022-08-12T06:38:25.266Z,23.88
2022-08-12T06:41:18.029Z,23.98
2022-08-12T06:44:07.126Z,23.80
2022-08-12T06:46:36.635Z,23.49
2022-08-12T06:49:04.505Z,23.69
2022-08-12T06:51:32.696Z,23.88
2022-08-12T06:54:02.886Z,24.02
2022-08-12T06:57:00.224Z,24.43
2022-08-12T06:59:21.103Z,24.08
2022-08-12T07:01:50.869Z,24.06
2022-08-12T07:04:37.205Z,24.51
2022-08-12T07:07:09.870Z,24.24
2022-08-12T07:10:04.725Z,24.24
2022-08-12T07:12:30.290Z,24.30
2022-08-12T07:14:59.782Z,24.30
2022-08-12T07:17:35.854Z,25.01
2022-08-12T07:20:29.661Z,25.19
2022-08-12T07:22:59.848Z,24.89
2022-08-12T07:25:37.599Z,24.63
2022-08-12T07:28:16.775Z,25.03
2022-08-12T07:30:49.115Z,25.17
2022-08-12T07:33:18.774Z,25.55
2022-08-12T07:35:47.839Z,25.27
2022-08-12T07:38:40.048Z,25.19
2022-08-12T07:41:20.242Z,25.15
2022-08-12T07:44:05.221Z,25.28
2022-08-12T07:46:43.224Z,25.60
2022-08-12T07:49:15.807Z,25.95
2022-08-12T07:51:44.226Z,25.76
2022-08-12T07:54:12.957Z,25.79
2022-08-12T07:56:43.813Z,26.40
2022-08-12T07:59:11.595Z,26.25
2022-08-12T08:01:39.639Z,26.25
2022-08-12T08:04:26.406Z,26.50
2022-08-12T08:06:54.588Z,26.57
2022-08-12T08:09:24.303Z,26.92
2022-08-12T08:12:18.895Z,26.73
2022-08-12T08:14:48.365Z,26.33
2022-08-12T08:17:17.664Z,26.65
2022-08-12T08:20:03.181Z,26.49
2022-08-12T08:22:41.302Z,26.71
2022-08-12T08:25:34.503Z,26.80
2022-08-12T08:28:12.464Z,27.17
2022-08-12T08:30:44.324Z,26.69
2022-08-12T08:33:23.235Z,27.07
2022-08-12T08:36:03.043Z,27.21
2022-08-12T08:38:33.284Z,27.53
2022-08-12T08:42:17.367Z,27.21
2022-08-12T08:44:11.674Z,27.70
2022-08-12T08:46:41.077Z,27.25
2022-08-12T08:49:08.500Z,27.48
2022-08-12T08:51:36.396Z,27.60
2022-08-12T08:54:03.497Z,28.01
2022-08-12T08:56:30.514Z,27.63
2022-08-12T08:58:57.995Z,28.03
2022-08-12T09:01:26.877Z,28.22
2022-08-12T09:05:09.924Z,28.60
2022-08-12T09:06:56.725Z,28.63
2022-08-12T09:09:24.777Z,28.92
2022-08-12T09:12:27.277Z,28.98
2022-08-12T09:14:54.621Z,29.44
2022-08-12T09:17:22.276Z,28.97
2022-08-12T09:19:55.094Z,28.49
2022-08-12T09:22:48.967Z,28.82
2022-08-12T09:25:25.475Z,28.98
2022-08-12T09:28:18.087Z,28.41
2022-08-12T09:30:51.057Z,28.72
2022-08-12T09:34:25.366Z,29.03
2022-08-12T09:36:05.638Z,28.40
2022-08-12T09:38:36.859Z,28.61
2022-08-12T09:42:32.975Z,28.65
2022-08-12T09:44:38.166Z,29.00
2022-08-12T09:47:01.196Z,28.74
2022-08-12T09:49:28.551Z,29.64
2022-08-12T09:51:57.359Z,29.55
2022-08-12T09:54:32.759Z,29.46
2022-08-12T09:58:44.740Z,29.54
2022-08-12T10:00:14.953Z,29.54
2022-08-12T10:03:32.734Z,29.82
2022-08-12T10:06:26.326Z,29.14
2022-08-12T10:08:52.505Z,30.05
2022-08-12T10:12:09.797Z,29.93
2022-08-12T10:14:34.486Z,29.21
2022-08-12T10:17:02.273Z,29.25
2022-08-12T10:19:36.313Z,29.97
2022-08-12T10:22:06.024Z,29.66
2022-08-12T10:25:17.161Z,29.57
2022-08-12T10:28:07.052Z,30.16
2022-08-12T10:30:43.916Z,30.60
2022-08-12T10:33:18.299Z,30.33
2022-08-12T10:35:46.416Z,30.06
2022-08-12T10:38:34.303Z,30.45
2022-08-12T10:41:21.092Z,31.36
2022-08-12T10:43:54.459Z,31.33
2022-08-12T10:46:24.348Z,31.05
2022-08-12T10:49:06.511Z,31.05
2022-08-12T10:52:02.648Z,30.69
2022-08-12T10:54:34.670Z,30.10
2022-08-12T10:57:03.469Z,31.13
2022-08-12T10:59:58.202Z,30.93
2022-08-12T11:04:23.462Z,30.71
2022-08-12T11:07:03.059Z,30.46
2022-08-12T11:08:34.548Z,31.52
2022-08-12T11:10:41.744Z,31.07
2022-08-12T11:13:12.920Z,32.54
2022-08-12T11:16:19.043Z,31.49
2022-08-12T11:18:28.231Z,33.30
2022-08-12T11:20:57.815Z,32.42
2022-08-12T11:23:36.672Z,31.36
2022-08-12T11:26:08.332Z,31.32
2022-08-12T11:28:38.210Z,31.24
2022-08-12T11:31:12.414Z,31.74
2022-08-12T11:34:06.422Z,31.44
2022-08-12T11:36:31.039Z,30.84
2022-08-12T11:38:58.405Z,30.78
2022-08-12T11:41:34.863Z,31.15
2022-08-12T11:44:35.375Z,30.65
2022-08-12T11:46:53.527Z,32.91
2022-08-12T11:49:30.969Z,32.50
2022-08-12T11:52:01.910Z,32.00
2022-08-12T11:54:30.183Z,32.38
2022-08-12T11:57:01.949Z,34.58
2022-08-12T12:02:20.973Z,32.56
2022-08-12T12:04:53.976Z,32.04
2022-08-12T12:08:39.092Z,31.07
2022-08-12T12:10:15.880Z,30.63
2022-08-12T12:12:49.746Z,31.27
2022-08-12T12:15:25.337Z,30.71
2022-08-12T12:17:54.944Z,31.12
2022-08-12T12:20:26.190Z,32.99
2022-08-12T12:22:57.549Z,31.42
2022-08-12T12:26:07.412Z,31.96
2022-08-12T12:28:37.657Z,30.34
2022-08-12T12:31:04.174Z,30.96
2022-08-12T12:33:56.802Z,32.38
2022-08-12T12:36:24.020Z,31.86
2022-08-12T12:38:56.250Z,31.61
2022-08-12T12:41:37.135Z,31.83
2022-08-12T12:44:13.457Z,32.72
2022-08-12T12:46:54.785Z,31.88
2022-08-12T12:49:26.094Z,32.32
2022-08-12T12:52:19.931Z,32.71
2022-08-12T12:54:52.476Z,34.22
2022-08-12T12:57:21.478Z,34.53
2022-08-12T13:00:15.996Z,33.01
2022-08-12T13:02:54.057Z,33.81
2022-08-12T13:05:27.789Z,35.04
2022-08-12T13:08:01.442Z,34.13
2022-08-12T13:10:36.910Z,33.41
2022-08-12T13:14:07.122Z,34.21
2022-08-12T13:15:59.297Z,34.59
2022-08-12T13:18:33.423Z,35.63
2022-08-12T13:21:02.157Z,34.45
2022-08-12T13:23:36.570Z,35.01
2022-08-12T13:26:04.926Z,33.97
2022-08-12T13:28:32.681Z,33.12
2022-08-12T13:31:00.441Z,32.65
2022-08-12T13:33:29.368Z,33.55
2022-08-12T13:36:18.237Z,34.23
2022-08-12T13:38:52.112Z,34.29
2022-08-12T13:41:33.675Z,33.40
2022-08-12T13:44:10.633Z,32.63
2022-08-12T13:46:40.846Z,33.52
2022-08-12T13:49:11.508Z,33.73
2022-08-12T13:51:53.769Z,34.03
2022-08-12T13:54:21.247Z,33.32
2022-08-12T13:56:49.961Z,33.17
2022-08-12T13:59:23.743Z,32.50
2022-08-12T14:01:52.110Z,33.20
2022-08-12T14:04:19.223Z,34.22
2022-08-12T14:06:50.516Z,34.79
2022-08-12T14:09:19.933Z,34.55
2022-08-12T14:11:58.455Z,32.17
2022-08-12T14:14:31.148Z,34.71
2022-08-12T14:17:05.198Z,34.41
2022-08-12T14:19:37.608Z,32.92
2022-08-12T14:22:06.678Z,33.18
2022-08-12T14:24:40.295Z,32.66
2022-08-12T14:27:12.777Z,35.69
2022-08-12T14:30:04.080Z,34.53
2022-08-12T14:32:36.653Z,33.23
2022-08-12T14:35:09.726Z,32.76
2022-08-12T14:37:57.323Z,33.19
2022-08-12T14:40:29.265Z,31.37
2022-08-12T14:43:00.327Z,30.11
2022-08-12T14:45:44.367Z,32.98
2022-08-12T14:48:18.631Z,32.47
2022-08-12T14:51:09.842Z,31.84
2022-08-12T14:59:56.691Z,32.12
2022-08-12T15:02:22.108Z,32.81
2022-08-12T15:04:59.726Z,32.39
2022-08-12T15:07:34.183Z,32.11
2022-08-12T15:10:24.968Z,34.06
2022-08-12T15:13:06.970Z,33.77
2022-08-12T15:15:44.090Z,32.94
2022-08-12T15:18:21.563Z,32.74
2022-08-12T15:20:54.637Z,32.52
2022-08-12T15:23:33.119Z,31.63
2022-08-12T15:26:21.260Z,33.86
2022-08-12T15:28:55.703Z,32.23
2022-08-12T15:31:28.148Z,34.24
2022-08-12T15:34:13.357Z,32.22
2022-08-12T15:36:54.862Z,32.55
2022-08-12T15:39:22.529Z,32.46
2022-08-12T15:41:55.248Z,33.22
2022-08-12T15:44:42.186Z,32.59
2022-08-12T15:47:10.282Z,31.95
2022-08-12T15:49:54.547Z,31.17
2022-08-12T15:52:28.594Z,30.83
2022-08-12T15:54:59.401Z,30.53
2022-08-12T15:57:33.725Z,31.34
2022-08-12T16:00:07.639Z,31.47
2022-08-12T16:02:51.287Z,30.86
2022-08-12T16:06:11.987Z,30.97
2022-08-12T16:08:17.102Z,30.39
2022-08-12T16:10:45.784Z,31.07
2022-08-12T16:13:32.334Z,31.27
2022-08-12T16:16:22.503Z,31.78
2022-08-12T16:18:58.656Z,31.78
2022-08-12T16:21:52.127Z,31.19
2022-08-12T16:24:18.571Z,31.22
2022-08-12T16:26:51.259Z,31.81
2022-08-12T16:29:29.360Z,31.45
2022-08-12T16:32:16.377Z,31.69
2022-08-12T16:34:55.998Z,31.08
2022-08-12T16:37:32.567Z,31.11
2022-08-12T16:40:06.369Z,30.43
2022-08-12T16:42:42.045Z,31.04
2022-08-12T16:45:22.950Z,30.30
2022-08-12T16:48:01.266Z,30.24
2022-08-12T16:50:30.631Z,30.52
2022-08-12T16:53:03.451Z,30.77
2022-08-12T16:55:41.834Z,30.66
2022-08-12T16:58:28.208Z,29.86
2022-08-12T17:01:01.823Z,29.90
2022-08-12T17:03:32.551Z,29.36
2022-08-12T17:06:06.396Z,29.66
2022-08-12T17:08:34.077Z,29.23
2022-08-12T17:11:01.214Z,29.39
2022-08-12T17:13:29.208Z,29.16
2022-08-12T17:16:06.301Z,28.96
2022-08-12T17:18:56.945Z,29.11
2022-08-12T17:21:40.886Z,29.03
2022-08-12T17:24:15.310Z,29.00
2022-08-12T17:26:45.055Z,28.75
2022-08-12T17:29:23.885Z,28.86
2022-08-12T17:32:02.743Z,29.32
2022-08-12T17:34:49.261Z,29.03
2022-08-12T17:37:16.929Z,28.60
2022-08-12T17:40:16.018Z,28.56
2022-08-12T17:42:35.647Z,28.46
2022-08-12T17:45:17.254Z,28.51
2022-08-12T17:48:01.650Z,28.37
2022-08-12T17:50:44.562Z,28.34
2022-08-12T17:53:18.850Z,28.48
2022-08-12T17:55:51.340Z,28.13
2022-08-12T17:58:35.738Z,28.46
2022-08-12T18:01:11.548Z,28.47
2022-08-12T18:04:05.292Z,28.34
2022-08-12T18:06:28.399Z,28.19
2022-08-12T18:08:59.388Z,28.14
2022-08-12T18:12:04.051Z,28.07
2022-08-12T18:14:36.984Z,27.93
2022-08-12T18:17:08.619Z,27.55
2022-08-12T18:20:05.384Z,27.79
2022-08-12T18:22:40.850Z,27.54
2022-08-12T18:26:12.381Z,27.64
2022-08-12T18:28:16.419Z,27.39
2022-08-12T18:30:52.225Z,27.47
2022-08-12T18:33:24.949Z,27.46
2022-08-12T18:35:55.699Z,27.40
2022-08-12T18:38:25.797Z,27.33
2022-08-12T18:41:17.537Z,27.06
2022-08-12T18:44:02.558Z,27.17
2022-08-12T18:46:54.149Z,26.93
2022-08-12T18:49:38.053Z,26.67
2022-08-12T18:52:11.698Z,26.65
2022-08-12T18:54:54.112Z,26.80
2022-08-12T18:58:06.794Z,26.29
2022-08-12T19:00:21.286Z,26.45
2022-08-12T19:02:55.650Z,26.63
2022-08-12T19:05:52.707Z,26.37
2022-08-12T19:08:13.762Z,26.20
2022-08-12T19:10:50.347Z,26.05
2022-08-12T19:13:39.807Z,26.00
2022-08-12T19:16:10.755Z,25.94
2022-08-12T19:18:44.572Z,25.93
2022-08-12T19:21:16.123Z,25.87
2022-08-12T19:24:04.695Z,25.43
2022-08-12T19:26:35.016Z,25.07
2022-08-12T19:29:05.029Z,24.32
2022-08-12T19:31:58.265Z,24.22
2022-08-12T19:35:32.939Z,24.38
2022-08-12T19:38:02.737Z,24.28
2022-08-12T19:40:32.679Z,24.48
2022-08-12T19:43:18.915Z,24.75
2022-08-12T19:45:51.197Z,24.76
2022-08-12T19:48:22.594Z,25.01
2022-08-12T19:50:56.585Z,24.93
2022-08-12T19:53:27.595Z,24.94
2022-08-12T19:55:57.520Z,24.70
2022-08-12T19:58:25.522Z,24.54
2022-08-12T20:00:55.324Z,24.60
2022-08-12T20:03:39.246Z,24.37
2022-08-12T20:06:13.907Z,24.60
2022-08-12T20:08:49.254Z,24.56
2022-08-12T20:12:10.325Z,24.63
2022-08-12T20:14:19.693Z,24.43
2022-08-12T20:16:56.436Z,24.53
2022-08-12T20:20:01.052Z,24.45
2022-08-12T20:22:31.494Z,24.57
2022-08-12T20:25:07.510Z,24.45
2022-08-12T20:28:04.104Z,24.26
2022-08-12T20:30:52.492Z,24.09
2022-08-12T20:33:17.309Z,24.19
2022-08-12T20:36:12.818Z,23.28
2022-08-12T20:38:38.047Z,23.62
2022-08-12T20:41:16.577Z,23.90
2022-08-12T20:43:52.086Z,23.48
2022-08-12T20:46:21.054Z,23.25
2022-08-12T20:48:55.267Z,22.21
2022-08-12T20:51:50.852Z,23.13
2022-08-12T20:54:16.657Z,23.41
2022-08-12T20:56:45.392Z,23.37
2022-08-12T20:59:20.230Z,23.70
2022-08-12T21:01:49.297Z,23.21
2022-08-12T21:04:40.675Z,23.47
2022-08-12T21:07:13.742Z,23.55
2022-08-12T21:09:47.399Z,23.50
2022-08-12T21:12:27.718Z,23.28
2022-08-12T21:15:16.998Z,23.38
2022-08-12T21:18:10.914Z,23.41
2022-08-12T21:20:53.236Z,23.29
2022-08-12T21:23:22.652Z,23.12
2022-08-12T21:25:53.753Z,23.12
2022-08-12T21:28:30.934Z,23.32
2022-08-12T21:32:35.306Z,22.93
2022-08-12T21:34:06.508Z,22.91
2022-08-12T21:36:40.265Z,22.96
2022-08-12T21:39:19.280Z,22.97
2022-08-12T21:41:54.373Z,22.89
2022-08-12T21:45:44.345Z,22.82
2022-08-12T21:47:20.871Z,22.58
2022-08-12T21:50:02.232Z,22.71
2022-08-12T21:52:48.858Z,22.55
2022-08-12T21:55:18.761Z,22.52
2022-08-12T21:57:54.540Z,22.32
2022-08-12T22:00:34.212Z,22.39
2022-08-12T22:04:04.041Z,22.23
2022-08-12T22:06:25.967Z,22.29
2022-08-12T22:09:03.839Z,22.27
2022-08-12T22:11:41.565Z,22.19
2022-08-12T22:14:21.395Z,22.28
2022-08-12T22:16:54.644Z,22.19
2022-08-12T22:19:23.435Z,22.15
2022-08-12T22:21:54.685Z,22.04
2022-08-12T22:24:27.049Z,21.72
2022-08-12T22:27:23.007Z,21.73
2022-08-12T22:30:16.674Z,21.10
2022-08-12T22:32:49.710Z,20.66
2022-08-12T22:35:56.624Z,21.07
2022-08-12T22:38:25.437Z,21.37
2022-08-12T22:41:06.494Z,21.23
2022-08-12T22:44:00.522Z,21.05
2022-08-12T22:46:51.985Z,21.48
2022-08-12T22:49:37.079Z,21.69
2022-08-12T22:52:23.062Z,21.94
2022-08-12T22:55:02.835Z,21.86
2022-08-12T22:57:53.733Z,21.69
2022-08-12T23:00:24.097Z,21.59
2022-08-12T23:02:59.335Z,21.64
2022-08-12T23:05:57.147Z,21.56
2022-08-12T23:08:29.613Z,21.49
2022-08-12T23:10:59.389Z,21.63
2022-08-12T23:13:45.896Z,21.57
2022-08-12T23:16:28.619Z,21.47
2022-08-12T23:19:17.810Z,21.55
2022-08-12T23:22:06.142Z,21.57
2022-08-12T23:24:56.242Z,21.49
2022-08-12T23:27:51.731Z,21.16
2022-08-12T23:30:32.036Z,21.19
2022-08-12T23:33:13.022Z,21.24
2022-08-12T23:35:59.422Z,21.12
2022-08-12T23:38:34.551Z,21.20
2022-08-12T23:41:05.035Z,21.17
2022-08-12T23:43:39.279Z,21.09
2022-08-12T23:46:18.678Z,21.19
2022-08-12T23:48:48.095Z,21.01
2022-08-12T23:51:25.938Z,21.03
2022-08-12T23:54:07.062Z,21.05
2022-08-12T23:56:37.173Z,20.85
2022-08-12T23:59:09.554Z,21.01
